Time;durP1;ratioP1;P1;durP2;ratioP2;P2;SDS_P1;SDS_P2;PMS_P1;PMS_P2;Temp;Humidity;BMP_temperature;BMP_pressure;BME280_temperature;BME280_humidity;BME280_pressure;Samples;Min_cycle;Max_cycle;Signal;HPM_P1;HPM_P2
2023/02/17 00:01:22;;;;;;;9.88;5.72;;;11.10;87.50;;;;;;5041542;28;20105;-73
2023/02/17 00:03:51;;;;;;;9.25;5.85;;;11.10;87.60;;;;;;5046879;28;20031;-73
2023/02/17 00:06:19;;;;;;;9.77;5.38;;;11.10;87.70;;;;;;5046168;28;20086;-74
2023/02/17 00:08:45;;;;;;;8.90;5.30;;;11.10;87.70;;;;;;5043811;28;20028;-75
2023/02/17 00:11:11;;;;;;;8.82;5.60;;;11.10;87.80;;;;;;5044037;28;20029;-74
2023/02/17 00:13:37;;;;;;;9.98;5.70;;;11.10;87.60;;;;;;5044333;28;20029;-74
2023/02/17 00:16:20;;;;;;;8.65;5.40;;;11.10;87.70;;;;;;5042623;28;20044;-73
2023/02/17 00:18:47;;;;;;;9.02;5.60;;;11.10;87.60;;;;;;5041098;28;20025;-74
2023/02/17 00:21:16;;;;;;;9.73;6.05;;;11.10;87.70;;;;;;5045986;28;20044;-72
2023/02/17 00:23:42;;;;;;;10.32;6.45;;;11.10;87.80;;;;;;5046858;28;20021;-73
2023/02/17 00:26:08;;;;;;;10.48;6.90;;;11.10;87.80;;;;;;5048016;28;20033;-73
2023/02/17 00:28:34;;;;;;;12.88;7.80;;;11.10;87.70;;;;;;5044022;28;20017;-73
2023/02/17 00:31:14;;;;;;;10.88;7.20;;;11.10;87.80;;;;;;5047028;28;20060;-73
2023/02/17 00:33:40;;;;;;;12.77;7.97;;;11.10;87.70;;;;;;5048244;28;20025;-72
2023/02/17 00:36:10;;;;;;;10.55;7.47;;;11.10;87.70;;;;;;5044593;28;20039;-74
2023/02/17 00:38:36;;;;;;;11.07;7.70;;;11.10;87.60;;;;;;5048368;28;20041;-73
2023/02/17 00:41:02;;;;;;;12.98;8.88;;;11.10;87.70;;;;;;5048979;28;20558;-73
2023/02/17 00:43:27;;;;;;;12.82;8.20;;;11.10;87.80;;;;;;5044762;28;20100;-77
2023/02/17 00:45:53;;;;;;;12.15;8.32;;;11.10;88.00;;;;;;5044670;28;20491;-72
2023/02/17 00:48:19;;;;;;;13.07;8.68;;;11.10;88.00;;;;;;5047842;28;20021;-73
2023/02/17 00:50:45;;;;;;;11.43;8.02;;;11.10;88.00;;;;;;5030153;28;20426;-73
2023/02/17 00:53:11;;;;;;;12.27;8.32;;;11.10;88.00;;;;;;5038131;28;20370;-73
2023/02/17 00:55:37;;;;;;;11.88;8.32;;;11.10;87.90;;;;;;5051322;28;20029;-72
2023/02/17 00:58:02;;;;;;;13.32;9.20;;;11.10;88.00;;;;;;5042480;28;20028;-73
2023/02/17 01:00:28;;;;;;;11.50;8.50;;;11.10;88.00;;;;;;5024227;28;20055;-73
2023/02/17 01:02:54;;;;;;;12.20;8.60;;;11.00;88.10;;;;;;5047554;28;20028;-75
2023/02/17 01:05:19;;;;;;;11.95;8.63;;;11.00;88.20;;;;;;5052359;28;20025;-75
2023/02/17 01:07:45;;;;;;;11.85;8.82;;;11.00;88.20;;;;;;5042991;28;20033;-74
2023/02/17 01:10:11;;;;;;;12.27;8.82;;;11.00;88.30;;;;;;5054398;28;20021;-74
2023/02/17 01:12:37;;;;;;;12.77;9.18;;;11.00;88.20;;;;;;5048940;28;20047;-73
2023/02/17 01:15:03;;;;;;;11.00;7.95;;;11.00;88.10;;;;;;5053711;28;20116;-75
2023/02/17 01:17:29;;;;;;;12.35;8.45;;;11.00;88.30;;;;;;5026617;28;20037;-73
2023/02/17 01:19:56;;;;;;;14.05;9.85;;;10.90;88.40;;;;;;5052884;28;20027;-72
2023/02/17 01:22:22;;;;;;;12.48;9.50;;;10.90;88.40;;;;;;5048406;28;20554;-77
2023/02/17 01:24:47;;;;;;;13.43;9.23;;;10.90;88.40;;;;;;5054610;28;20021;-72
2023/02/17 01:27:13;;;;;;;14.23;9.68;;;10.90;88.20;;;;;;5042095;28;20126;-73
2023/02/17 01:29:39;;;;;;;14.15;8.48;;;10.80;88.30;;;;;;5057690;28;20048;-74
2023/02/17 01:32:05;;;;;;;12.40;8.10;;;10.90;88.20;;;;;;5043653;28;20037;-74
2023/02/17 01:34:30;;;;;;;13.30;7.93;;;10.80;88.40;;;;;;5030113;28;20366;-72
2023/02/17 01:36:56;;;;;;;13.23;8.52;;;10.80;88.30;;;;;;5042886;28;20040;-73
2023/02/17 01:39:22;;;;;;;12.80;8.10;;;10.80;88.20;;;;;;5030561;28;20404;-77
2023/02/17 01:41:47;;;;;;;10.60;6.78;;;10.80;88.30;;;;;;5044320;28;20089;-73
2023/02/17 01:44:20;;;;;;;10.80;5.50;;;10.80;88.40;;;;;;5049052;28;20537;-73
2023/02/17 01:46:48;;;;;;;12.35;6.45;;;10.80;88.30;;;;;;5048331;28;20037;-74
2023/02/17 01:49:24;;;;;;;10.18;6.32;;;10.80;88.40;;;;;;5050734;28;20204;-73
2023/02/17 01:52:00;;;;;;;9.77;5.55;;;10.70;88.20;;;;;;5042961;28;20390;-72
2023/02/17 01:54:36;;;;;;;10.45;6.45;;;10.70;88.20;;;;;;5043379;28;20280;-73
2023/02/17 01:57:03;;;;;;;12.20;7.70;;;10.80;88.10;;;;;;5029834;28;20472;-73
2023/02/17 01:59:29;;;;;;;10.85;6.43;;;10.70;88.20;;;;;;5047515;28;20017;-73
2023/02/17 02:01:59;;;;;;;9.45;6.07;;;10.70;88.30;;;;;;5046819;28;20089;-74
2023/02/17 02:04:29;;;;;;;11.82;5.75;;;10.70;88.40;;;;;;5052728;28;20021;-74
2023/02/17 02:06:55;;;;;;;10.10;6.10;;;10.70;88.50;;;;;;5029105;28;20454;-76
2023/02/17 02:09:35;;;;;;;11.60;5.88;;;10.70;88.40;;;;;;5046286;28;20027;-73
2023/02/17 02:12:01;;;;;;;10.45;5.82;;;10.60;88.40;;;;;;5056211;28;20068;-73
2023/02/17 02:14:27;;;;;;;8.57;4.82;;;10.60;88.40;;;;;;5052362;28;20063;-73
2023/02/17 02:17:22;;;;;;;8.15;5.07;;;10.60;88.50;;;;;;5020102;28;20060;-73
2023/02/17 02:20:06;;;;;;;;;;;10.50;88.50;;;;;;5047931;28;20333;-73
2023/02/17 02:22:59;;;;;;;9.80;4.88;;;10.60;88.50;;;;;;5048158;28;19928;-71
2023/02/17 02:25:40;;;;;;;10.90;5.97;;;10.60;88.40;;;;;;5046448;28;20039;-76
2023/02/17 02:28:08;;;;;;;13.13;6.47;;;10.60;88.30;;;;;;5047373;28;21493;-74
2023/02/17 02:31:16;;;;;;;10.65;6.85;;;10.60;88.30;;;;;;5051113;28;20049;-74
2023/02/17 02:33:54;;;;;;;10.40;5.38;;;10.60;88.20;;;;;;5027202;28;20064;-72
2023/02/17 02:36:34;;;;;;;7.85;4.38;;;10.50;88.30;;;;;;5033738;28;20381;-73
2023/02/17 02:39:10;;;;;;;8.90;4.25;;;10.50;88.40;;;;;;5052955;28;20101;-76
2023/02/17 02:41:49;;;;;;;9.13;4.95;;;10.50;88.50;;;;;;5047549;28;20057;-74
2023/02/17 02:44:17;;;;;;;8.80;4.30;;;10.50;88.60;;;;;;5054501;28;20021;-74
2023/02/17 02:46:43;;;;;;;8.02;4.15;;;10.50;88.70;;;;;;5046212;28;20039;-75
2023/02/17 02:49:09;;;;;;;7.97;4.40;;;10.50;88.70;;;;;;5052823;28;20020;-74
2023/02/17 02:51:53;;;;;;;8.48;4.28;;;10.50;88.70;;;;;;5028155;28;20028;-74
2023/02/17 02:54:28;;;;;;;7.75;4.75;;;10.50;88.60;;;;;;5027414;28;20405;-73
2023/02/17 02:57:02;;;;;;;;;;;10.50;88.70;;;;;;5046067;28;20504;-73
2023/02/17 02:59:44;;;;;;;7.60;4.32;;;10.50;88.70;;;;;;5045695;28;19909;-72
2023/02/17 03:02:34;;;;;;;9.88;4.35;;;10.60;88.70;;;;;;5049268;28;20041;-74
2023/02/17 03:05:32;;;;;;;9.35;4.13;;;10.60;88.70;;;;;;5046557;28;20361;-72
2023/02/17 03:08:30;;;;;;;9.75;4.00;;;10.50;88.90;;;;;;5044973;28;20055;-74
2023/02/17 03:10:56;;;;;;;10.82;4.88;;;10.50;88.80;;;;;;5043109;28;20044;-72
2023/02/17 03:13:21;;;;;;;11.90;5.43;;;10.60;89.00;;;;;;5053454;28;20017;-73
2023/02/17 03:15:48;;;;;;;10.00;5.18;;;10.60;88.80;;;;;;5041269;28;20087;-73
2023/02/17 03:18:14;;;;;;;10.48;5.00;;;10.60;88.90;;;;;;5047258;28;20059;-73
2023/02/17 03:20:49;;;;;;;13.50;5.53;;;10.60;89.00;;;;;;5020249;28;20386;-75
2023/02/17 03:23:15;;;;;;;12.45;4.63;;;10.60;89.00;;;;;;5028555;28;20017;-74
2023/02/17 03:25:42;;;;;;;12.93;5.43;;;10.60;89.10;;;;;;5027274;28;20029;-76
2023/02/17 03:28:07;;;;;;;9.95;4.72;;;10.60;89.00;;;;;;5025732;28;20107;-73
2023/02/17 03:30:34;;;;;;;10.75;5.70;;;10.60;89.00;;;;;;5040487;28;20358;-73
2023/02/17 03:32:59;;;;;;;11.57;5.75;;;10.60;89.00;;;;;;5050936;28;20021;-72
2023/02/17 03:35:25;;;;;;;12.30;5.97;;;10.60;89.10;;;;;;5051697;28;20124;-72
2023/02/17 03:37:51;;;;;;;12.13;5.60;;;10.50;89.20;;;;;;5026184;28;20331;-72
2023/02/17 03:40:16;;;;;;;11.43;5.20;;;10.50;89.30;;;;;;5051730;28;20021;-73
2023/02/17 03:42:42;;;;;;;11.18;5.10;;;10.60;89.30;;;;;;5044027;28;20545;-72
2023/02/17 03:45:08;;;;;;;9.45;5.28;;;10.60;89.30;;;;;;5048821;28;20044;-74
2023/02/17 03:47:34;;;;;;;11.60;5.30;;;10.60;89.40;;;;;;5045308;28;20047;-73
2023/02/17 03:50:00;;;;;;;12.35;6.03;;;10.50;89.50;;;;;;5051000;28;20037;-74
2023/02/17 03:52:25;;;;;;;11.88;5.65;;;10.60;89.50;;;;;;5044756;28;20041;-72
2023/02/17 03:54:52;;;;;;;13.23;6.00;;;10.50;89.50;;;;;;5047876;28;20029;-73
2023/02/17 03:57:17;;;;;;;12.40;5.32;;;10.50;89.50;;;;;;5043819;28;20212;-73
2023/02/17 03:59:43;;;;;;;11.50;5.75;;;10.50;89.40;;;;;;5045286;28;20036;-74
2023/02/17 04:02:09;;;;;;;11.95;6.00;;;10.50;89.50;;;;;;5042950;28;20040;-73
2023/02/17 04:04:35;;;;;;;11.32;6.25;;;10.50;89.30;;;;;;5046829;28;20024;-73
2023/02/17 04:07:01;;;;;;;12.55;6.28;;;10.50;89.40;;;;;;5044370;28;20102;-74
2023/02/17 04:09:26;;;;;;;15.77;6.80;;;10.50;89.40;;;;;;5048179;28;20032;-72
2023/02/17 04:11:52;;;;;;;11.43;6.72;;;10.50;89.40;;;;;;5051898;28;20033;-72
2023/02/17 04:14:18;;;;;;;12.45;6.13;;;10.50;89.60;;;;;;5028645;28;20033;-76
2023/02/17 04:16:43;;;;;;;16.15;6.60;;;10.50;89.60;;;;;;5043145;28;20063;-73
2023/02/17 04:19:09;;;;;;;12.25;5.85;;;10.60;89.60;;;;;;5054544;28;20053;-75
2023/02/17 04:21:35;;;;;;;13.25;5.60;;;10.50;89.60;;;;;;5030335;28;20036;-73
2023/02/17 04:24:02;;;;;;;12.75;6.10;;;10.60;89.70;;;;;;5045374;28;20036;-73
2023/02/17 04:26:28;;;;;;;8.73;4.97;;;10.60;89.60;;;;;;5028675;28;20032;-73
2023/02/17 04:28:54;;;;;;;10.65;5.70;;;10.60;89.70;;;;;;5044484;28;20056;-75
2023/02/17 04:31:19;;;;;;;11.27;6.25;;;10.60;89.80;;;;;;5027608;28;20068;-75
2023/02/17 04:33:45;;;;;;;11.20;5.85;;;10.60;89.80;;;;;;5044235;28;20025;-74
2023/02/17 04:36:11;;;;;;;13.98;6.72;;;10.60;89.90;;;;;;5042053;28;20041;-73
2023/02/17 04:38:37;;;;;;;13.85;6.97;;;10.60;89.90;;;;;;5044797;28;20127;-74
2023/02/17 04:41:05;;;;;;;13.60;7.18;;;10.60;90.10;;;;;;5046662;28;20500;-75
2023/02/17 04:43:30;;;;;;;14.52;7.10;;;10.60;90.10;;;;;;5045670;28;20102;-74
2023/02/17 04:45:56;;;;;;;12.85;7.15;;;10.60;90.30;;;;;;5038949;28;20034;-73
2023/02/17 04:48:22;;;;;;;16.85;7.63;;;10.60;90.20;;;;;;5045097;28;20115;-74
2023/02/17 04:50:48;;;;;;;12.35;7.05;;;10.60;90.20;;;;;;5041524;28;20037;-72
2023/02/17 04:53:14;;;;;;;13.48;7.68;;;10.60;90.30;;;;;;5046796;28;20452;-74
2023/02/17 04:55:40;;;;;;;14.27;7.78;;;10.60;90.20;;;;;;5043559;28;20083;-76
2023/02/17 04:58:06;;;;;;;14.35;7.70;;;10.70;90.30;;;;;;5045622;28;20029;-73
2023/02/17 05:00:32;;;;;;;15.20;7.50;;;10.70;90.30;;;;;;5039901;28;20021;-74
2023/02/17 05:02:57;;;;;;;13.43;7.55;;;10.70;90.50;;;;;;5049038;28;20017;-73
2023/02/17 05:05:23;;;;;;;14.02;8.00;;;10.60;90.60;;;;;;5042364;28;20040;-72
2023/02/17 05:07:49;;;;;;;13.40;7.88;;;10.60;90.60;;;;;;5044092;28;20060;-74
2023/02/17 05:10:16;;;;;;;14.20;7.45;;;10.70;90.70;;;;;;5046687;28;20385;-73
2023/02/17 05:12:42;;;;;;;15.73;7.38;;;10.70;90.80;;;;;;5028612;28;20110;-73
2023/02/17 05:15:08;;;;;;;14.98;8.05;;;10.60;90.90;;;;;;5044682;28;20587;-74
2023/02/17 05:17:34;;;;;;;13.57;7.25;;;10.70;90.90;;;;;;5046604;28;20033;-74
2023/02/17 05:20:00;;;;;;;15.30;7.55;;;10.70;90.90;;;;;;5048215;28;20025;-73
2023/02/17 05:22:26;;;;;;;13.48;8.32;;;10.70;90.90;;;;;;5025362;28;20067;-74
2023/02/17 05:24:52;;;;;;;14.60;8.27;;;10.70;91.00;;;;;;5046980;28;20053;-75
2023/02/17 05:27:18;;;;;;;16.48;7.78;;;10.70;91.00;;;;;;5044125;28;20070;-75
2023/02/17 05:29:44;;;;;;;11.82;7.15;;;10.70;91.10;;;;;;5045244;28;20053;-73
2023/02/17 05:32:10;;;;;;;15.82;8.10;;;10.70;91.20;;;;;;5044529;28;20035;-74
2023/02/17 05:34:36;;;;;;;12.43;7.70;;;10.70;91.30;;;;;;5026557;28;20053;-74
2023/02/17 05:37:01;;;;;;;12.77;8.00;;;10.80;91.10;;;;;;5042730;28;20048;-73
2023/02/17 05:39:28;;;;;;;14.02;7.72;;;10.70;91.20;;;;;;5034795;28;20084;-74
2023/02/17 05:41:53;;;;;;;14.32;7.82;;;10.80;91.20;;;;;;5039381;28;20040;-74
2023/02/17 05:44:19;;;;;;;14.05;8.30;;;10.80;91.20;;;;;;5024827;28;20028;-73
2023/02/17 05:46:45;;;;;;;13.95;8.57;;;10.80;91.20;;;;;;5039572;28;20029;-73
2023/02/17 05:49:11;;;;;;;14.73;8.25;;;10.80;91.30;;;;;;5021598;28;20029;-74
2023/02/17 05:51:37;;;;;;;13.45;8.30;;;10.80;91.20;;;;;;5029138;28;20044;-73
2023/02/17 05:54:02;;;;;;;13.50;8.73;;;10.80;91.30;;;;;;5036168;28;20044;-74
2023/02/17 05:56:28;;;;;;;13.70;8.60;;;10.80;91.40;;;;;;5025789;28;20746;-77
2023/02/17 05:58:54;;;;;;;14.15;9.05;;;10.90;91.40;;;;;;5045864;28;20044;-73
2023/02/17 06:01:20;;;;;;;12.02;7.93;;;10.90;91.40;;;;;;5045100;28;20117;-75
2023/02/17 06:03:45;;;;;;;14.57;8.90;;;10.90;91.30;;;;;;5045131;28;20366;-74
2023/02/17 06:06:11;;;;;;;12.35;8.00;;;11.00;91.30;;;;;;5047472;28;20052;-75
2023/02/17 06:08:37;;;;;;;11.82;7.28;;;11.00;91.30;;;;;;5036010;28;20032;-74
2023/02/17 06:11:03;;;;;;;13.30;8.27;;;11.00;91.20;;;;;;5038995;28;20052;-73
2023/02/17 06:13:29;;;;;;;13.32;8.05;;;11.00;91.30;;;;;;5047327;28;20636;-75
2023/02/17 06:15:54;;;;;;;13.23;8.38;;;11.00;91.20;;;;;;5042593;28;20086;-77
2023/02/17 06:18:20;;;;;;;12.40;8.45;;;11.00;91.20;;;;;;5054961;28;20064;-75
2023/02/17 06:20:46;;;;;;;16.95;10.68;;;11.00;91.20;;;;;;5038421;28;20404;-77
2023/02/17 06:23:11;;;;;;;12.13;8.25;;;11.00;91.30;;;;;;5037415;28;20381;-77
2023/02/17 06:25:37;;;;;;;12.35;9.00;;;11.10;91.00;;;;;;5039478;28;20031;-73
2023/02/17 06:28:04;;;;;;;13.48;8.50;;;11.10;91.00;;;;;;5034466;28;20032;-73
2023/02/17 06:30:30;;;;;;;12.95;9.15;;;11.10;90.90;;;;;;5028669;28;20045;-73
2023/02/17 06:32:57;;;;;;;12.40;9.02;;;11.10;90.90;;;;;;5045315;28;20032;-72
2023/02/17 06:35:22;;;;;;;12.27;8.43;;;11.10;90.80;;;;;;5043802;28;20136;-73
2023/02/17 06:37:48;;;;;;;15.23;8.55;;;11.10;90.70;;;;;;5044973;28;20112;-73
2023/02/17 06:40:14;;;;;;;12.80;8.88;;;11.10;90.60;;;;;;5027271;28;20024;-75
2023/02/17 06:42:40;;;;;;;11.60;8.18;;;11.10;90.50;;;;;;5044800;28;20041;-73
2023/02/17 06:45:06;;;;;;;11.98;8.77;;;11.10;90.40;;;;;;5045766;28;20029;-77
2023/02/17 06:47:33;;;;;;;12.90;8.95;;;11.10;90.30;;;;;;5046324;28;20037;-73
2023/02/17 06:49:59;;;;;;;13.00;8.50;;;11.10;90.20;;;;;;5043855;28;20029;-74
2023/02/17 06:52:24;;;;;;;12.63;9.25;;;11.10;90.20;;;;;;5040210;28;20052;-76
2023/02/17 06:54:50;;;;;;;12.70;9.20;;;11.10;90.00;;;;;;5051548;28;20020;-73
2023/02/17 06:57:16;;;;;;;12.48;9.52;;;11.10;89.90;;;;;;5042057;28;20040;-73
2023/02/17 06:59:42;;;;;;;12.93;8.57;;;11.10;89.90;;;;;;5046334;28;20492;-73
2023/02/17 07:02:12;;;;;;;11.50;8.73;;;11.10;89.90;;;;;;5043759;28;20053;-73
2023/02/17 07:04:39;;;;;;;11.93;7.57;;;11.10;89.80;;;;;;5046146;28;20519;-75
2023/02/17 07:07:05;;;;;;;10.13;7.38;;;11.10;89.70;;;;;;5034362;28;20095;-75
2023/02/17 07:09:31;;;;;;;9.90;7.32;;;11.10;89.70;;;;;;5050090;28;20446;-75
2023/02/17 07:11:56;;;;;;;9.30;6.30;;;11.10;89.60;;;;;;5030531;28;20348;-73
2023/02/17 07:14:23;;;;;;;9.02;5.75;;;11.10;89.50;;;;;;5054326;28;20089;-77
2023/02/17 07:16:49;;;;;;;10.48;5.65;;;11.10;89.30;;;;;;5044912;28;20033;-73
2023/02/17 07:19:15;;;;;;;9.45;5.35;;;11.10;89.30;;;;;;5052780;28;20350;-77
2023/02/17 07:21:41;;;;;;;9.90;5.00;;;11.20;89.30;;;;;;5043773;28;20045;-73
2023/02/17 07:24:07;;;;;;;7.78;5.35;;;11.10;89.20;;;;;;5036584;28;20516;-78
2023/02/17 07:26:37;;;;;;;7.90;4.90;;;11.20;89.20;;;;;;5048939;28;20072;-76
2023/02/17 07:29:04;;;;;;;8.15;5.10;;;11.10;89.10;;;;;;5047708;28;20052;-75
2023/02/17 07:31:30;;;;;;;8.05;4.57;;;11.10;88.90;;;;;;5044697;28;20076;-75
2023/02/17 07:33:56;;;;;;;6.38;3.97;;;11.10;88.90;;;;;;5025810;28;20456;-75
2023/02/17 07:36:22;;;;;;;6.32;3.78;;;11.10;88.70;;;;;;5047078;28;20611;-84
2023/02/17 07:38:48;;;;;;;5.60;3.50;;;11.20;88.50;;;;;;5040961;28;20021;-78
2023/02/17 07:41:17;;;;;;;7.18;3.88;;;11.20;88.50;;;;;;5022902;28;20407;-76
2023/02/17 07:43:44;;;;;;;6.20;3.92;;;11.20;88.50;;;;;;5035222;28;20029;-73
2023/02/17 07:46:10;;;;;;;6.53;3.45;;;11.20;88.50;;;;;;5025043;28;20032;-76
2023/02/17 07:48:37;;;;;;;5.90;3.75;;;11.20;88.20;;;;;;5041053;28;20021;-74
2023/02/17 07:51:11;;;;;;;5.45;3.03;;;11.20;88.20;;;;;;5040632;28;20472;-73
2023/02/17 07:53:38;;;;;;;8.20;3.78;;;11.20;88.20;;;;;;5044436;28;20060;-72
2023/02/17 07:56:05;;;;;;;6.28;3.22;;;11.30;88.10;;;;;;5044964;28;20037;-74
2023/02/17 07:58:36;;;;;;;7.88;3.30;;;11.20;88.10;;;;;;5042578;28;20496;-73
2023/02/17 08:01:13;;;;;;;6.05;3.55;;;11.30;88.10;;;;;;5041091;28;20092;-73
2023/02/17 08:03:38;;;;;;;7.00;3.63;;;11.30;88.00;;;;;;5041561;28;20473;-74
2023/02/17 08:06:18;;;;;;;7.18;3.45;;;11.30;87.90;;;;;;5040809;28;20044;-74
2023/02/17 08:14:13;;;;;;;6.70;3.95;;;11.40;87.60;;;;;;5048807;28;20035;-73
2023/02/17 08:16:39;;;;;;;6.50;3.55;;;11.40;87.60;;;;;;5056549;28;20020;-72
2023/02/17 08:19:05;;;;;;;7.32;3.78;;;11.40;87.50;;;;;;5042099;28;20055;-75
2023/02/17 08:21:31;;;;;;;5.68;3.33;;;11.50;87.50;;;;;;5044115;28;20089;-75
2023/02/17 08:23:56;;;;;;;5.53;2.80;;;11.50;87.50;;;;;;5044995;28;20024;-77
2023/02/17 08:26:23;;;;;;;5.68;2.75;;;11.50;87.30;;;;;;5043869;28;20036;-77
2023/02/17 08:28:49;;;;;;;6.40;3.50;;;11.50;87.40;;;;;;5044265;28;20084;-80
2023/02/17 08:31:20;;;;;;;5.88;3.63;;;11.50;87.30;;;;;;5041619;28;20040;-77
2023/02/17 08:33:46;;;;;;;5.82;3.17;;;11.50;87.30;;;;;;5025688;28;20025;-77
2023/02/17 08:36:12;;;;;;;6.50;3.70;;;11.60;87.30;;;;;;5048202;28;20033;-77
2023/02/17 08:38:38;;;;;;;7.68;3.65;;;11.60;87.30;;;;;;5043110;28;20025;-77
2023/02/17 08:41:21;;;;;;;6.40;3.30;;;11.60;87.10;;;;;;5039774;28;20110;-77
2023/02/17 08:43:47;;;;;;;5.05;2.92;;;11.60;86.90;;;;;;5042130;28;20029;-77
2023/02/17 08:46:13;;;;;;;7.05;3.30;;;11.60;86.80;;;;;;5042497;28;20175;-77
2023/02/17 08:48:40;;;;;;;7.47;3.17;;;11.70;86.60;;;;;;5040570;28;20497;-77
2023/02/17 08:51:05;;;;;;;6.13;3.60;;;11.80;86.60;;;;;;5043270;28;20697;-77
2023/02/17 08:53:32;;;;;;;7.30;4.10;;;11.70;86.50;;;;;;5044462;28;20577;-76
2023/02/17 08:55:57;;;;;;;8.43;4.57;;;11.70;86.40;;;;;;5024914;28;20048;-76
2023/02/17 08:58:23;;;;;;;9.38;5.60;;;11.80;86.30;;;;;;5024252;28;20017;-76
2023/02/17 09:00:49;;;;;;;8.60;4.82;;;11.90;86.10;;;;;;5022219;28;20057;-77
2023/02/17 09:03:14;;;;;;;7.15;4.70;;;11.90;85.90;;;;;;5042445;28;20067;-76
2023/02/17 09:05:40;;;;;;;9.05;4.82;;;11.90;86.10;;;;;;5035374;28;20117;-75
2023/02/17 09:08:06;;;;;;;7.38;4.70;;;12.10;85.90;;;;;;5044759;28;20502;-75
2023/02/17 09:10:32;;;;;;;6.35;3.20;;;12.10;85.40;;;;;;5042759;28;20029;-76
2023/02/17 09:12:57;;;;;;;5.80;3.20;;;12.20;85.20;;;;;;5044714;28;20128;-78
2023/02/17 09:15:23;;;;;;;8.63;4.60;;;12.20;85.20;;;;;;5041318;28;20051;-79
2023/02/17 09:17:49;;;;;;;6.78;3.63;;;12.30;85.00;;;;;;5040065;28;20523;-78
2023/02/17 09:20:18;;;;;;;8.75;4.47;;;12.40;84.70;;;;;;5038028;28;20056;-78
2023/02/17 09:22:43;;;;;;;9.30;5.63;;;12.40;84.40;;;;;;5038776;28;20025;-77
2023/02/17 09:25:09;;;;;;;8.82;5.85;;;12.40;84.30;;;;;;5027394;28;20029;-78
2023/02/17 09:27:35;;;;;;;10.10;6.05;;;12.40;84.60;;;;;;5042391;28;20128;-79
2023/02/17 09:30:01;;;;;;;8.60;5.35;;;12.40;84.40;;;;;;5041480;28;20044;-80
2023/02/17 09:32:27;;;;;;;8.13;5.63;;;12.30;84.30;;;;;;5038779;28;20389;-79
2023/02/17 09:34:53;;;;;;;8.13;5.00;;;12.40;84.40;;;;;;5046499;28;20037;-77
2023/02/17 09:37:20;;;;;;;6.80;4.50;;;12.40;84.30;;;;;;5047841;28;20116;-77
2023/02/17 09:39:47;;;;;;;8.35;4.78;;;12.30;84.40;;;;;;5042060;28;20115;-77
2023/02/17 09:42:26;;;;;;;9.05;5.38;;;12.30;84.20;;;;;;5047248;28;20040;-76
2023/02/17 09:45:08;;;;;;;7.47;4.65;;;12.30;84.50;;;;;;5043577;28;20158;-77
2023/02/17 09:47:41;;;;;;;7.00;3.05;;;12.30;84.50;;;;;;5041127;28;20642;-76
2023/02/17 09:50:32;;;;;;;8.48;3.53;;;12.30;84.50;;;;;;5030510;28;20017;-79
2023/02/17 09:53:08;;;;;;;6.60;3.58;;;12.30;84.60;;;;;;5028519;28;20045;-77
2023/02/17 09:55:42;;;;;;;6.15;3.50;;;12.50;84.30;;;;;;5031536;28;20097;-78
2023/02/17 09:58:12;;;;;;;7.05;4.13;;;12.60;83.90;;;;;;5039667;28;20029;-76
2023/02/17 10:00:43;;;;;;;7.53;4.60;;;12.60;83.60;;;;;;5042989;28;20055;-79
2023/02/17 10:03:29;;;;;;;7.57;3.47;;;12.70;83.50;;;;;;5043498;28;20142;-76
2023/02/17 10:06:01;;;;;;;6.88;3.58;;;12.60;83.30;;;;;;5045546;28;20037;-78
2023/02/17 10:08:33;;;;;;;7.15;2.55;;;12.60;83.50;;;;;;5045704;28;20422;-75
2023/02/17 10:11:09;;;;;;;5.32;2.22;;;12.50;83.70;;;;;;5040157;28;20033;-75
2023/02/17 10:13:36;;;;;;;6.70;2.80;;;12.60;83.70;;;;;;5045915;28;20052;-75
2023/02/17 10:16:09;;;;;;;5.65;2.28;;;12.60;83.60;;;;;;5042099;28;20363;-75
2023/02/17 10:19:09;;;;;;;5.18;2.38;;;12.60;83.70;;;;;;5044054;28;20025;-74
2023/02/17 10:21:41;;;;;;;5.53;3.22;;;12.60;83.90;;;;;;5029416;28;20049;-74
2023/02/17 10:24:06;;;;;;;7.90;3.90;;;12.60;84.10;;;;;;5052105;28;20040;-76
2023/02/17 10:26:58;;;;;;;6.38;3.15;;;12.60;83.90;;;;;;5046348;28;20037;-74
2023/02/17 10:29:37;;;;;;;5.10;2.63;;;12.60;83.90;;;;;;5043988;28;20041;-75
2023/02/17 10:32:25;;;;;;;5.50;2.50;;;12.60;83.40;;;;;;5041684;28;20118;-74
2023/02/17 10:35:03;;;;;;;6.30;2.17;;;12.70;83.20;;;;;;5044291;28;20055;-74
2023/02/17 10:37:37;;;;;;;3.85;1.58;;;12.60;83.40;;;;;;5040473;28;20076;-76
2023/02/17 10:40:15;;;;;;;8.90;1.95;;;12.50;83.50;;;;;;5020307;28;20029;-75
2023/02/17 10:42:41;;;;;;;5.63;2.10;;;12.40;83.80;;;;;;5045009;28;20453;-76
2023/02/17 10:45:33;;;;;;;6.80;2.10;;;12.40;84.30;;;;;;5041291;28;20029;-75
2023/02/17 10:48:11;;;;;;;5.13;2.00;;;12.50;84.20;;;;;;5042630;28;20045;-75
2023/02/17 10:50:39;;;;;;;4.72;1.80;;;12.60;84.10;;;;;;5048236;28;20317;-75
2023/02/17 10:53:22;;;;;;;4.78;2.22;;;12.60;83.90;;;;;;5028012;28;20362;-75
2023/02/17 10:55:48;;;;;;;4.60;2.00;;;12.70;83.80;;;;;;5041408;28;20041;-75
2023/02/17 10:58:22;;;;;;;3.33;1.50;;;12.60;83.60;;;;;;5038214;28;20025;-75
2023/02/17 11:00:51;;;;;;;;;;;12.60;83.60;;;;;;5044691;28;20076;-76
2023/02/17 11:03:24;;;;;;;4.15;1.63;;;12.60;83.60;;;;;;5038382;28;19963;-75
2023/02/17 11:05:58;;;;;;;4.95;1.80;;;12.60;83.80;;;;;;5047398;28;21173;-77
2023/02/17 11:08:39;;;;;;;;;;;12.50;84.00;;;;;;5040417;28;20051;-76
2023/02/17 11:11:17;;;;;;;6.15;2.13;;;12.50;84.00;;;;;;5044553;28;20046;-78
2023/02/17 11:13:57;;;;;;;2.97;1.60;;;12.50;84.10;;;;;;5043323;28;20461;-76
2023/02/17 11:16:32;;;;;;;5.15;1.63;;;12.50;84.30;;;;;;5020520;28;20056;-77
2023/02/17 11:18:58;;;;;;;;;;;12.50;84.10;;;;;;5026540;28;20373;-75
2023/02/17 11:21:27;;;;;;;6.20;1.63;;;12.30;84.30;;;;;;5039942;28;19912;-76
2023/02/17 11:24:04;;;;;;;4.30;1.80;;;12.40;84.30;;;;;;5040190;28;20753;-76
2023/02/17 11:26:33;;;;;;;3.20;1.50;;;12.30;84.10;;;;;;5041298;28;20021;-76
2023/02/17 11:29:16;;;;;;;5.13;1.80;;;12.30;84.30;;;;;;5046459;28;20094;-76
2023/02/17 11:32:00;;;;;;;2.35;1.50;;;12.20;84.10;;;;;;5040720;28;20041;-76
2023/02/17 11:34:31;;;;;;;3.35;1.63;;;12.20;84.10;;;;;;5029734;28;20029;-79
2023/02/17 11:37:12;;;;;;;3.33;1.60;;;12.20;84.20;;;;;;5031769;28;20037;-78
2023/02/17 11:39:52;;;;;;;4.88;1.77;;;12.20;84.50;;;;;;5019935;28;20036;-75
2023/02/17 11:42:22;;;;;;;5.53;2.03;;;12.10;84.80;;;;;;5033554;28;20082;-75
2023/02/17 11:44:48;;;;;;;2.47;1.40;;;12.10;85.00;;;;;;5033421;28;20030;-77
2023/02/17 11:47:45;;;;;;;4.78;1.58;;;12.10;84.70;;;;;;5033911;28;20041;-80
2023/02/17 11:50:49;;;;;;;3.00;1.48;;;12.20;84.70;;;;;;5039817;28;20033;-77
2023/02/17 11:53:45;;;;;;;5.03;1.75;;;12.40;84.30;;;;;;5002648;28;20214;-76
2023/02/17 11:56:27;;;;;;;5.80;1.60;;;12.30;84.00;;;;;;5035887;28;20048;-76
2023/02/17 11:59:11;;;;;;;5.70;1.40;;;12.50;83.50;;;;;;5017960;28;20048;-75
2023/02/17 12:02:05;;;;;;;2.53;1.30;;;12.50;83.20;;;;;;5034563;28;20546;-74
2023/02/17 12:04:33;;;;;;;3.65;1.38;;;12.60;83.00;;;;;;5022587;28;20167;-76
2023/02/17 12:07:26;;;;;;;4.63;1.75;;;12.60;83.00;;;;;;5034063;28;20164;-76
2023/02/17 12:10:13;;;;;;;3.30;1.42;;;12.60;83.00;;;;;;5036370;28;20022;-75
2023/02/17 12:12:38;;;;;;;4.05;1.45;;;12.60;82.70;;;;;;5033637;28;20126;-76
2023/02/17 12:15:07;;;;;;;4.43;1.63;;;12.80;82.20;;;;;;5034195;28;20116;-76
2023/02/17 12:17:50;;;;;;;3.17;1.20;;;12.90;82.10;;;;;;5030922;28;20048;-76
2023/02/17 12:20:33;;;;;;;4.40;1.50;;;12.90;81.40;;;;;;5033738;28;20246;-75
2023/02/17 12:23:17;;;;;;;3.20;1.13;;;12.90;81.30;;;;;;5031426;28;20051;-77
2023/02/17 12:25:55;;;;;;;3.17;1.30;;;13.00;81.10;;;;;;5033161;28;20044;-77
2023/02/17 12:28:36;;;;;;;2.85;1.30;;;13.00;81.00;;;;;;5034289;28;20535;-77
2023/02/17 12:31:45;;;;;;;2.75;1.10;;;13.10;80.80;;;;;;5033297;28;20041;-77
2023/02/17 12:34:38;;;;;;;2.65;1.05;;;13.30;79.90;;;;;;4999886;28;20034;-76
2023/02/17 12:37:06;;;;;;;3.38;1.20;;;13.30;80.00;;;;;;5033878;28;20033;-75
2023/02/17 12:39:38;;;;;;;2.92;1.02;;;13.30;80.00;;;;;;5033378;28;20470;-76
2023/02/17 12:42:17;;;;;;;3.08;1.30;;;13.30;79.70;;;;;;5032427;28;20153;-77
2023/02/17 12:44:48;;;;;;;2.72;1.20;;;13.40;80.20;;;;;;5042087;28;20261;-76
2023/02/17 12:47:22;;;;;;;2.90;1.33;;;13.40;79.30;;;;;;5045340;28;20116;-77
2023/02/17 12:50:05;;;;;;;5.45;1.55;;;13.60;79.10;;;;;;5041471;28;20029;-77
2023/02/17 12:52:40;;;;;;;2.97;1.23;;;13.60;79.30;;;;;;5042877;28;20524;-79
2023/02/17 12:55:08;;;;;;;3.08;1.27;;;13.70;78.80;;;;;;5036536;28;20532;-76
2023/02/17 12:57:59;;;;;;;2.20;1.15;;;13.70;78.10;;;;;;5040808;28;20065;-78
2023/02/17 13:00:38;;;;;;;4.40;1.63;;;13.60;78.60;;;;;;5041093;28;20025;-79
2023/02/17 13:03:05;;;;;;;3.55;1.48;;;13.80;79.00;;;;;;5044724;28;20041;-77
2023/02/17 13:05:47;;;;;;;4.70;1.30;;;13.60;79.50;;;;;;5047875;28;20025;-79